createdAt,value
2019-06-07T00:00:29.654Z,9.70
2019-06-07T00:02:39.589Z,9.70
2019-06-07T00:05:10.005Z,9.60
2019-06-07T00:07:39.057Z,9.50
2019-06-07T00:10:09.373Z,9.40
2019-06-07T00:12:37.843Z,9.30
2019-06-07T00:15:12.980Z,9.20
2019-06-07T00:17:37.454Z,9.00
2019-06-07T00:20:11.001Z,8.90
2019-06-07T00:22:37.649Z,8.80
2019-06-07T00:25:12.051Z,8.80
2019-06-07T00:27:38.551Z,8.90
2019-06-07T00:30:33.773Z,8.80
2019-06-07T00:32:39.873Z,8.90
2019-06-07T00:35:09.511Z,8.90
2019-06-07T00:37:38.268Z,8.90
2019-06-07T00:40:16.456Z,8.90
2019-06-07T00:42:37.986Z,9.00
2019-06-07T00:45:07.794Z,9.00
2019-06-07T00:47:36.302Z,9.00
2019-06-07T00:50:06.087Z,9.00
2019-06-07T00:55:09.033Z,8.90
2019-06-07T00:57:38.447Z,8.90
2019-06-07T01:00:08.822Z,8.90
2019-06-07T01:02:37.253Z,8.90
2019-06-07T01:05:07.538Z,8.90
2019-06-07T01:07:36.033Z,8.90
2019-06-07T01:10:06.979Z,8.90
2019-06-07T01:12:35.433Z,8.80
2019-06-07T01:15:05.333Z,8.80
2019-06-07T01:17:43.780Z,8.80
2019-06-07T01:20:09.324Z,8.80
2019-06-07T01:22:37.837Z,8.80
2019-06-07T01:25:08.172Z,8.90
2019-06-07T01:27:36.673Z,8.90
2019-06-07T01:30:08.199Z,9.00
2019-06-07T01:32:36.625Z,9.10
2019-06-07T01:35:10.022Z,9.10
2019-06-07T01:37:38.839Z,9.10
2019-06-07T01:40:08.911Z,9.00
2019-06-07T01:42:37.347Z,8.90
2019-06-07T01:45:09.199Z,8.80
2019-06-07T01:47:37.990Z,8.80
2019-06-07T01:50:10.376Z,8.90
2019-06-07T01:52:38.800Z,8.90
2019-06-07T01:55:07.566Z,8.90
2019-06-07T01:57:47.705Z,8.90
2019-06-07T02:00:11.243Z,9.00
2019-06-07T02:02:40.134Z,9.00
2019-06-07T02:05:09.942Z,9.10
2019-06-07T02:07:38.773Z,9.10
2019-06-07T02:10:09.392Z,9.20
2019-06-07T02:12:43.377Z,9.30
2019-06-07T02:15:09.891Z,9.30
2019-06-07T02:17:39.200Z,9.30
2019-06-07T02:20:08.747Z,9.30
2019-06-07T02:22:37.605Z,9.30
2019-06-07T02:25:35.261Z,9.30
2019-06-07T02:27:37.477Z,9.40
2019-06-07T02:30:36.681Z,9.50
2019-06-07T02:32:38.817Z,9.60
2019-06-07T02:35:07.925Z,9.70
2019-06-07T02:37:37.380Z,9.70
2019-06-07T02:40:08.627Z,9.80
2019-06-07T02:42:42.129Z,9.70
2019-06-07T02:45:10.826Z,9.70
2019-06-07T02:47:40.102Z,9.70
2019-06-07T02:50:12.990Z,9.70
2019-06-07T02:52:42.314Z,9.60
2019-06-07T02:55:12.254Z,9.50
2019-06-07T02:57:42.651Z,9.50
2019-06-07T03:00:47.487Z,9.60
2019-06-07T03:02:43.641Z,9.60
2019-06-07T03:05:13.385Z,9.60
2019-06-07T03:07:45.210Z,9.60
2019-06-07T03:10:16.523Z,9.60
2019-06-07T03:12:47.230Z,9.60
2019-06-07T03:15:32.918Z,9.60
2019-06-07T03:18:07.642Z,9.60
2019-06-07T03:20:36.922Z,9.50
2019-06-07T03:23:06.656Z,9.50
2019-06-07T03:25:39.252Z,9.50
2019-06-07T03:28:08.527Z,9.60
2019-06-07T03:30:52.172Z,9.70
2019-06-07T03:33:07.619Z,9.70
2019-06-07T03:35:37.478Z,9.80
2019-06-07T03:38:06.528Z,9.90
2019-06-07T03:40:39.607Z,9.90
2019-06-07T03:43:05.442Z,10.00
2019-06-07T03:45:37.912Z,10.00
2019-06-07T03:48:04.131Z,9.90
2019-06-07T03:50:36.160Z,9.90
2019-06-07T03:53:03.470Z,9.90
2019-06-07T03:55:37.718Z,9.90
2019-06-07T03:58:30.975Z,9.90
2019-06-07T04:00:36.328Z,9.90
2019-06-07T04:03:03.209Z,10.00
2019-06-07T04:05:32.777Z,10.00
2019-06-07T04:08:01.818Z,10.10
2019-06-07T04:10:48.284Z,10.20
2019-06-07T04:13:00.743Z,10.20
2019-06-07T04:15:30.731Z,10.30
2019-06-07T04:18:02.278Z,10.40
2019-06-07T04:20:32.586Z,10.40
2019-06-07T04:23:00.888Z,10.50
2019-06-07T04:25:31.755Z,10.60
2019-06-07T04:27:59.784Z,10.70
2019-06-07T04:30:45.567Z,10.70
2019-06-07T04:33:15.179Z,10.80
2019-06-07T04:35:45.311Z,10.80
2019-06-07T04:38:15.143Z,10.90
2019-06-07T04:40:44.854Z,11.00
2019-06-07T04:43:14.489Z,11.00
2019-06-07T04:45:50.765Z,11.10
2019-06-07T04:48:13.822Z,11.20
2019-06-07T04:50:43.972Z,11.20
2019-06-07T04:53:12.862Z,11.30
2019-06-07T04:55:41.966Z,11.40
2019-06-07T04:58:11.002Z,11.40
2019-06-07T05:00:53.256Z,11.50
2019-06-07T05:03:10.338Z,11.60
2019-06-07T05:05:41.922Z,11.70
2019-06-07T05:08:27.108Z,11.70
2019-06-07T05:10:43.086Z,11.80
2019-06-07T05:13:09.803Z,11.90
2019-06-07T05:15:39.994Z,12.00
2019-06-07T05:18:08.764Z,12.20
2019-06-07T05:20:40.127Z,12.30
2019-06-07T05:23:07.739Z,12.40
2019-06-07T05:25:38.438Z,12.40
2019-06-07T05:28:06.399Z,12.50
2019-06-07T05:33:09.199Z,12.50
2019-06-07T05:35:41.150Z,12.60
2019-06-07T05:38:08.594Z,12.70
2019-06-07T05:40:46.072Z,12.70
2019-06-07T05:43:23.296Z,12.80
2019-06-07T05:45:52.077Z,12.90
2019-06-07T05:48:20.535Z,13.00
2019-06-07T05:50:56.529Z,13.10
2019-06-07T05:53:19.194Z,13.20
2019-06-07T05:55:47.852Z,13.30
2019-06-07T05:58:16.680Z,13.40
2019-06-07T06:00:47.571Z,13.50
2019-06-07T06:03:15.485Z,13.60
2019-06-07T06:05:53.919Z,13.70
2019-06-07T06:08:14.508Z,13.80
2019-06-07T06:10:48.089Z,14.00
2019-06-07T06:13:13.853Z,14.10
2019-06-07T06:15:56.188Z,14.20
2019-06-07T06:18:12.967Z,14.30
2019-06-07T06:21:05.025Z,14.40
2019-06-07T06:23:12.173Z,14.50
2019-06-07T06:25:42.682Z,14.60
2019-06-07T06:28:12.864Z,14.80
2019-06-07T06:30:43.780Z,14.90
2019-06-07T06:33:30.690Z,15.00
2019-06-07T06:35:42.456Z,15.10
2019-06-07T06:38:11.976Z,15.20
2019-06-07T06:40:44.640Z,15.30
2019-06-07T06:43:11.378Z,15.40
2019-06-07T06:45:40.260Z,15.50
2019-06-07T06:48:08.783Z,15.60
2019-06-07T06:50:38.721Z,15.70
2019-06-07T06:53:07.681Z,15.80
2019-06-07T06:55:36.237Z,16.00
2019-06-07T06:58:05.315Z,16.20
2019-06-07T07:00:58.984Z,16.60
2019-06-07T07:03:54.096Z,17.10
2019-06-07T07:05:54.648Z,17.90
2019-06-07T07:08:21.700Z,18.50
2019-06-07T07:10:53.243Z,19.10
2019-06-07T07:13:20.770Z,19.60
2019-06-07T07:15:55.188Z,20.00
2019-06-07T07:18:19.736Z,20.40
2019-06-07T07:20:50.423Z,20.90
2019-06-07T07:23:18.699Z,21.20
2019-06-07T07:25:57.285Z,21.70
2019-06-07T07:28:17.762Z,22.10
2019-06-07T07:30:56.396Z,22.60
2019-06-07T07:33:23.059Z,22.90
2019-06-07T07:36:15.822Z,23.20
2019-06-07T07:38:21.662Z,23.70
2019-06-07T07:41:08.906Z,24.00
2019-06-07T07:43:20.478Z,24.20
2019-06-07T07:45:54.992Z,24.30
2019-06-07T07:48:20.527Z,24.70
2019-06-07T07:51:00.380Z,24.70
2019-06-07T07:53:48.368Z,25.10
2019-06-07T07:56:08.457Z,25.30
2019-06-07T07:58:36.966Z,25.70
2019-06-07T08:01:10.740Z,26.20
2019-06-07T08:03:36.674Z,26.20
2019-06-07T08:06:05.189Z,25.80
2019-06-07T08:08:33.758Z,26.00
2019-06-07T08:11:03.740Z,26.20
2019-06-07T08:13:32.221Z,26.20
2019-06-07T08:16:10.628Z,26.30
2019-06-07T08:18:31.255Z,26.50
2019-06-07T08:21:21.390Z,26.70
2019-06-07T08:23:32.623Z,26.80
2019-06-07T08:26:01.438Z,27.10
2019-06-07T08:28:32.441Z,27.10
2019-06-07T08:31:06.275Z,27.20
2019-06-07T08:33:31.442Z,27.20
2019-06-07T08:36:11.877Z,27.50
2019-06-07T08:38:46.883Z,27.30
2019-06-07T08:41:11.032Z,27.20
2019-06-07T08:43:32.570Z,27.30
2019-06-07T08:46:07.283Z,27.40
2019-06-07T08:48:34.540Z,27.40
2019-06-07T08:51:09.650Z,27.70
2019-06-07T08:53:38.427Z,27.40
2019-06-07T08:56:10.620Z,27.50
2019-06-07T08:58:37.434Z,28.00
2019-06-07T09:01:08.681Z,28.20
2019-06-07T09:03:36.429Z,28.40
2019-06-07T09:06:16.108Z,28.50
2019-06-07T09:08:35.756Z,28.80
2019-06-07T09:11:10.219Z,28.70
2019-06-07T09:13:34.750Z,28.70
2019-06-07T09:16:08.020Z,28.80
2019-06-07T09:18:42.703Z,29.10
2019-06-07T09:21:07.765Z,29.90
2019-06-07T09:23:40.093Z,30.50
2019-06-07T09:26:16.624Z,30.00
2019-06-07T09:28:39.514Z,29.90
2019-06-07T09:31:10.409Z,30.30
2019-06-07T09:33:38.554Z,30.60
2019-06-07T09:36:16.565Z,30.70
2019-06-07T09:38:45.838Z,31.00
2019-06-07T09:41:14.779Z,31.00
2019-06-07T09:46:16.288Z,31.10
2019-06-07T09:49:10.594Z,31.90
2019-06-07T09:51:19.741Z,32.70
2019-06-07T09:53:45.710Z,32.70
2019-06-07T09:56:14.537Z,33.20
2019-06-07T09:58:52.518Z,33.50
2019-06-07T10:01:16.163Z,33.90
2019-06-07T10:03:44.892Z,34.40
2019-06-07T10:06:13.944Z,34.50
2019-06-07T10:10:07.167Z,34.10
2019-06-07T10:11:16.499Z,33.80
2019-06-07T10:13:45.007Z,34.20
2019-06-07T10:16:13.728Z,34.00
2019-06-07T10:18:42.176Z,33.90
2019-06-07T10:21:14.833Z,34.20
2019-06-07T10:23:40.801Z,34.70
2019-06-07T10:26:10.131Z,34.70
2019-06-07T10:28:39.116Z,34.80
2019-06-07T10:31:09.456Z,34.90
2019-06-07T10:33:37.724Z,35.20
2019-06-07T10:36:06.618Z,35.20
2019-06-07T10:38:35.395Z,34.80
2019-06-07T10:41:04.734Z,34.60
2019-06-07T10:43:33.417Z,34.80
2019-06-07T10:46:01.859Z,35.20
2019-06-07T10:48:30.639Z,35.20
2019-06-07T10:50:59.418Z,35.30
2019-06-07T10:53:27.858Z,35.20
2019-06-07T10:55:56.716Z,35.20
2019-06-07T10:58:25.591Z,35.10
2019-06-07T11:00:54.367Z,35.20
2019-06-07T11:03:23.586Z,35.00
2019-06-07T11:05:52.377Z,34.90
2019-06-07T11:08:20.886Z,34.50
2019-06-07T11:10:49.710Z,34.40
2019-06-07T11:13:18.517Z,34.10
2019-06-07T11:15:46.978Z,34.30
2019-06-07T11:18:15.780Z,34.60
2019-06-07T11:20:44.549Z,34.70
2019-06-07T11:23:14.217Z,34.90
2019-06-07T11:25:43.178Z,35.00
2019-06-07T11:28:12.548Z,34.70
2019-06-07T11:30:41.446Z,34.90
2019-06-07T11:33:12.006Z,35.20
2019-06-07T11:35:40.458Z,35.20
2019-06-07T11:38:08.918Z,35.50
2019-06-07T11:40:37.347Z,35.50
2019-06-07T11:43:06.645Z,35.60
2019-06-07T11:45:35.602Z,35.30
2019-06-07T11:48:04.032Z,35.20
2019-06-07T11:50:32.451Z,35.00
2019-06-07T11:53:01.299Z,35.10
2019-06-07T11:55:30.027Z,35.20
2019-06-07T11:57:58.828Z,34.90
2019-06-07T12:00:27.319Z,35.10
2019-06-07T12:02:56.083Z,35.50
2019-06-07T12:05:24.528Z,35.50
2019-06-07T12:07:52.987Z,35.40
2019-06-07T12:10:23.161Z,35.30
2019-06-07T12:12:51.785Z,35.20
2019-06-07T12:15:20.356Z,35.20
2019-06-07T12:17:49.059Z,35.40
2019-06-07T12:20:20.988Z,35.50
2019-06-07T12:22:50.063Z,35.60
2019-06-07T12:25:24.447Z,35.50
2019-06-07T12:27:49.910Z,35.40
2019-06-07T12:30:26.039Z,35.10
2019-06-07T12:32:48.695Z,34.80
2019-06-07T12:35:23.186Z,34.40
2019-06-07T12:37:52.006Z,34.60
2019-06-07T12:40:30.193Z,34.40
2019-06-07T12:42:51.302Z,34.70
2019-06-07T12:45:42.410Z,34.50
2019-06-07T12:47:50.368Z,34.30
2019-06-07T12:50:21.584Z,34.20
2019-06-07T12:52:50.257Z,33.90
2019-06-07T12:55:20.455Z,33.60
2019-06-07T12:57:49.463Z,33.40
2019-06-07T13:00:20.130Z,33.10
2019-06-07T13:02:49.303Z,33.00
2019-06-07T13:05:19.802Z,32.70
2019-06-07T13:07:48.606Z,32.70
2019-06-07T13:10:17.978Z,32.90
2019-06-07T13:12:47.378Z,33.10
2019-06-07T13:15:18.721Z,33.00
2019-06-07T13:17:47.030Z,33.00
2019-06-07T13:20:18.084Z,33.10
2019-06-07T13:22:48.299Z,33.30
2019-06-07T13:25:18.412Z,33.40
2019-06-07T13:27:47.610Z,33.60
2019-06-07T13:30:18.826Z,33.50
2019-06-07T13:32:47.466Z,33.70
2019-06-07T13:35:18.202Z,33.70
2019-06-07T13:37:46.742Z,33.60
2019-06-07T13:40:16.417Z,33.80
2019-06-07T13:42:45.243Z,33.80
2019-06-07T13:45:14.422Z,33.90
2019-06-07T13:47:42.842Z,34.00
2019-06-07T13:50:12.046Z,33.60
2019-06-07T13:52:42.138Z,33.10
2019-06-07T13:55:11.982Z,32.60
2019-06-07T13:57:40.419Z,32.00
2019-06-07T14:00:13.012Z,31.50
2019-06-07T14:02:41.459Z,31.10
2019-06-07T14:05:10.226Z,30.50
2019-06-07T14:07:38.663Z,30.00
2019-06-07T14:10:11.644Z,29.80
2019-06-07T14:12:40.429Z,29.50
2019-06-07T14:15:10.240Z,29.20
2019-06-07T14:17:38.712Z,29.10
2019-06-07T14:20:08.721Z,29.10
2019-06-07T14:22:38.232Z,28.80
2019-06-07T14:25:08.975Z,28.60
2019-06-07T14:27:37.403Z,28.00
2019-06-07T14:30:08.242Z,27.40
2019-06-07T14:32:36.682Z,26.00
2019-06-07T14:35:07.796Z,23.10
2019-06-07T14:37:36.383Z,21.70
2019-06-07T14:40:09.666Z,21.90
2019-06-07T14:42:38.455Z,22.20
2019-06-07T14:45:10.826Z,22.40
2019-06-07T14:47:39.622Z,22.70
2019-06-07T14:50:10.340Z,22.70
2019-06-07T14:52:39.152Z,22.90
2019-06-07T14:55:09.238Z,22.80
2019-06-07T14:57:40.023Z,22.70
2019-06-07T15:00:11.852Z,22.50
2019-06-07T15:02:41.248Z,22.30
2019-06-07T15:05:11.522Z,21.70
2019-06-07T15:07:40.480Z,21.00
2019-06-07T15:10:11.101Z,20.70
2019-06-07T15:12:40.140Z,20.20
2019-06-07T15:15:10.636Z,19.80
2019-06-07T15:17:39.525Z,19.40
2019-06-07T15:20:09.753Z,19.10
2019-06-07T15:22:38.875Z,19.10
2019-06-07T15:25:09.013Z,19.20
2019-06-07T15:27:37.816Z,19.70
2019-06-07T15:30:10.293Z,20.40
2019-06-07T15:32:39.773Z,20.60
2019-06-07T15:35:09.204Z,20.60
2019-06-07T15:37:39.217Z,20.60
2019-06-07T15:40:08.805Z,20.50
2019-06-07T15:42:48.066Z,20.50
2019-06-07T15:45:09.430Z,20.70
2019-06-07T15:47:38.486Z,20.80
2019-06-07T15:50:09.279Z,21.40
2019-06-07T15:52:38.496Z,22.00
2019-06-07T15:55:09.771Z,22.20
2019-06-07T15:57:39.597Z,22.10
2019-06-07T16:00:13.684Z,22.20
2019-06-07T16:02:42.571Z,22.60
2019-06-07T16:05:11.633Z,23.00
2019-06-07T16:07:40.534Z,23.50
2019-06-07T16:10:10.760Z,24.00
2019-06-07T16:12:39.191Z,24.30
2019-06-07T16:15:10.374Z,23.80
2019-06-07T16:17:39.227Z,23.20
2019-06-07T16:20:08.701Z,22.90
2019-06-07T16:22:37.674Z,22.50
2019-06-07T16:25:07.870Z,22.40
2019-06-07T16:27:36.920Z,22.40
2019-06-07T16:30:13.421Z,22.50
2019-06-07T16:32:43.944Z,22.70
2019-06-07T16:35:13.018Z,22.90
2019-06-07T16:37:42.980Z,22.90
2019-06-07T16:40:13.455Z,22.80
2019-06-07T16:42:42.953Z,23.10
2019-06-07T16:45:14.067Z,22.50
2019-06-07T16:47:45.005Z,21.40
2019-06-07T16:50:14.027Z,20.80
2019-06-07T16:52:43.988Z,20.20
2019-06-07T16:55:13.195Z,19.80
2019-06-07T16:57:42.886Z,19.50
2019-06-07T17:00:13.461Z,19.30
2019-06-07T17:02:42.347Z,19.10
2019-06-07T17:05:11.844Z,19.00
2019-06-07T17:07:42.286Z,18.80
2019-06-07T17:10:12.073Z,18.80
2019-06-07T17:12:40.784Z,18.80
2019-06-07T17:15:12.715Z,18.60
2019-06-07T17:17:41.178Z,18.50
2019-06-07T17:20:16.123Z,18.40
2019-06-07T17:22:45.774Z,18.30
2019-06-07T17:25:15.549Z,18.30
2019-06-07T17:27:44.055Z,18.40
2019-06-07T17:30:14.077Z,17.90
2019-06-07T17:32:50.629Z,17.50
2019-06-07T17:35:13.680Z,17.50
2019-06-07T17:37:44.317Z,17.40
2019-06-07T17:40:15.828Z,17.30
2019-06-07T17:42:44.842Z,17.10
2019-06-07T17:45:15.835Z,17.10
2019-06-07T17:47:45.848Z,17.10
2019-06-07T17:50:15.243Z,17.00
2019-06-07T17:52:43.851Z,17.00
2019-06-07T17:55:13.340Z,16.90
2019-06-07T17:57:42.303Z,16.80
2019-06-07T18:00:28.290Z,16.80
2019-06-07T18:02:51.013Z,16.70
2019-06-07T18:05:19.639Z,16.60
2019-06-07T18:07:51.823Z,16.60
2019-06-07T18:10:26.690Z,16.60
2019-06-07T18:12:55.100Z,16.60
2019-06-07T18:15:26.594Z,16.50
2019-06-07T18:17:55.369Z,16.50
2019-06-07T18:20:24.054Z,16.40
2019-06-07T18:22:53.379Z,16.40
2019-06-07T18:25:22.048Z,16.40
2019-06-07T18:27:50.645Z,16.40
2019-06-07T18:30:19.818Z,16.40
2019-06-07T18:32:48.752Z,16.30
2019-06-07T18:35:17.419Z,16.30
2019-06-07T18:37:46.942Z,16.20
2019-06-07T18:40:16.341Z,16.10
2019-06-07T18:42:44.808Z,16.00
2019-06-07T18:45:13.659Z,15.90
2019-06-07T18:47:42.095Z,15.90
2019-06-07T18:50:10.875Z,15.90
2019-06-07T18:52:41.261Z,15.90
2019-06-07T18:55:11.394Z,15.80
2019-06-07T18:57:40.161Z,15.80
2019-06-07T19:00:12.131Z,15.90
2019-06-07T19:02:40.910Z,15.80
2019-06-07T19:05:10.726Z,15.70
2019-06-07T19:07:39.226Z,15.50
2019-06-07T19:10:09.733Z,15.30
2019-06-07T19:12:38.630Z,15.10
2019-06-07T19:15:08.543Z,14.90
2019-06-07T19:17:37.324Z,14.80
2019-06-07T19:20:07.542Z,14.70
2019-06-07T19:22:36.323Z,14.60
2019-06-07T19:25:07.258Z,14.50
2019-06-07T19:27:35.690Z,14.50
2019-06-07T19:30:06.483Z,14.50
2019-06-07T19:32:35.275Z,14.60
2019-06-07T19:35:04.773Z,14.60
2019-06-07T19:37:33.554Z,14.60
2019-06-07T19:40:02.914Z,14.70
2019-06-07T19:42:32.052Z,14.70
2019-06-07T19:45:26.025Z,14.60
2019-06-07T19:47:30.951Z,14.60
2019-06-07T19:50:00.798Z,14.60
2019-06-07T19:52:29.742Z,14.60
2019-06-07T19:54:59.645Z,14.60
2019-06-07T19:57:28.371Z,14.70
2019-06-07T19:59:57.491Z,14.70
2019-06-07T20:02:26.654Z,14.70
2019-06-07T20:04:59.471Z,14.70
2019-06-07T20:07:25.966Z,14.60
2019-06-07T20:09:54.846Z,14.60
2019-06-07T20:12:23.630Z,14.60
2019-06-07T20:14:55.355Z,14.70
2019-06-07T20:17:22.541Z,14.60
2019-06-07T20:19:51.096Z,14.60
2019-06-07T20:22:19.906Z,14.60
2019-06-07T20:24:48.370Z,14.90
2019-06-07T20:27:16.819Z,15.10
2019-06-07T20:29:45.309Z,15.10
2019-06-07T20:32:14.036Z,15.10
2019-06-07T20:34:44.697Z,15.10
2019-06-07T20:37:12.655Z,15.10
2019-06-07T20:39:41.110Z,15.00
2019-06-07T20:42:09.548Z,15.00
2019-06-07T20:44:38.379Z,14.90
2019-06-07T20:47:08.392Z,14.80
2019-06-07T20:49:37.287Z,14.80
2019-06-07T20:52:06.771Z,14.70
2019-06-07T20:54:35.700Z,14.60
2019-06-07T20:57:04.786Z,14.60
2019-06-07T20:59:33.373Z,14.60
2019-06-07T21:02:03.014Z,14.70
2019-06-07T21:04:31.641Z,14.90
2019-06-07T21:07:01.365Z,15.00
2019-06-07T21:09:30.249Z,14.90
2019-06-07T21:11:59.853Z,14.90
2019-06-07T21:14:28.842Z,14.90
2019-06-07T21:16:57.655Z,14.90
2019-06-07T21:19:26.512Z,14.90
2019-06-07T21:21:54.930Z,14.90
2019-06-07T21:24:23.682Z,15.00
2019-06-07T21:26:53.356Z,15.00
2019-06-07T21:29:22.594Z,15.00
2019-06-07T21:31:51.295Z,14.90
2019-06-07T21:34:19.814Z,14.80
2019-06-07T21:36:48.739Z,14.70
2019-06-07T21:39:17.179Z,14.70
2019-06-07T21:41:45.616Z,14.60
2019-06-07T21:44:14.546Z,14.40
2019-06-07T21:46:43.041Z,14.40
2019-06-07T21:49:12.785Z,14.30
2019-06-07T21:51:41.862Z,14.30
2019-06-07T21:54:13.054Z,14.20
2019-06-07T21:56:41.144Z,14.20
2019-06-07T21:59:09.740Z,14.10
2019-06-07T22:01:38.673Z,14.00
2019-06-07T22:04:07.616Z,14.00
2019-06-07T22:06:36.715Z,13.90
2019-06-07T22:09:07.758Z,13.90
2019-06-07T22:11:36.484Z,13.70
2019-06-07T22:14:14.746Z,13.50
2019-06-07T22:16:43.268Z,13.50
2019-06-07T22:19:12.752Z,13.60
2019-06-07T22:21:41.979Z,13.70
2019-06-07T22:24:11.003Z,13.70
2019-06-07T22:26:40.068Z,13.70
2019-06-07T22:29:09.997Z,13.80
2019-06-07T22:31:38.983Z,13.80
2019-06-07T22:34:08.695Z,13.90
2019-06-07T22:36:37.239Z,14.00
2019-06-07T22:39:07.515Z,14.00
2019-06-07T22:41:36.652Z,14.00
2019-06-07T22:44:07.041Z,14.00
2019-06-07T22:46:37.675Z,14.00
2019-06-07T22:49:07.142Z,14.00
2019-06-07T22:51:35.867Z,14.00
2019-06-07T22:54:05.199Z,14.10
2019-06-07T22:56:35.307Z,14.10
2019-06-07T22:59:04.135Z,14.10
2019-06-07T23:01:32.656Z,14.00
2019-06-07T23:04:01.104Z,14.00
2019-06-07T23:06:29.613Z,14.00
2019-06-07T23:08:58.168Z,14.10
2019-06-07T23:11:27.058Z,14.10
2019-06-07T23:13:55.922Z,14.10
2019-06-07T23:16:24.794Z,14.20
2019-06-07T23:19:03.600Z,14.20
2019-06-07T23:21:32.037Z,14.00
2019-06-07T23:24:00.501Z,14.00
2019-06-07T23:26:28.963Z,13.90
2019-06-07T23:28:57.865Z,14.00
2019-06-07T23:31:26.420Z,14.10
2019-06-07T23:33:55.540Z,14.10
2019-06-07T23:36:24.031Z,14.20
2019-06-07T23:38:52.958Z,14.10
2019-06-07T23:41:22.328Z,14.10
2019-06-07T23:43:51.435Z,14.00
2019-06-07T23:46:21.593Z,13.80
2019-06-07T23:48:50.802Z,13.80
2019-06-07T23:51:19.769Z,13.70
2019-06-07T23:53:48.584Z,13.70
2019-06-07T23:56:18.637Z,13.60
2019-06-07T23:58:47.584Z,13.60
